Time;durP1;ratioP1;P1;durP2;ratioP2;P2;SDS_P1;SDS_P2;PMS_P1;PMS_P2;Temp;Humidity;BMP_temperature;BMP_pressure;BME280_temperature;BME280_humidity;BME280_pressure;Samples;Min_cycle;Max_cycle;Signal;HPM_P1;HPM_P2
2021/09/16 00:00:16;;;;;;;;;;;;;;;;;;5093897;28;20081;-80
2021/09/16 00:02:42;;;;;;;;;;;;;;;;;;5093888;28;19924;-80
2021/09/16 00:05:08;;;;;;;;;;;;;;;;;;5093793;28;20407;-80
2021/09/16 00:07:33;;;;;;;;;;;;;;;;;;5092567;28;19912;-80
2021/09/16 00:09:59;;;;;;;;;;;;;;;;;;5093981;28;20011;-80
2021/09/16 00:12:24;;;;;;;;;;;;;;;;;;5093669;28;19923;-80
2021/09/16 00:14:49;;;;;;;;;;;;;;;;;;5093725;28;19912;-80
2021/09/16 00:17:15;;;;;;;;;;;;;;;;;;5092390;28;20363;-80
2021/09/16 00:19:40;;;;;;;;;;;;;;;;;;5094027;28;19912;-80
2021/09/16 00:22:06;;;;;;;;;;;;;;;;;;5093669;28;19916;-80
2021/09/16 00:24:31;;;;;;;;;;;;;;;;;;5093591;28;20348;-80
2021/09/16 00:26:57;;;;;;;;;;;;;;;;;;5093561;28;19916;-80
2021/09/16 00:29:22;;;;;;;;;;;;;;;;;;5094043;28;19924;-80
2021/09/16 00:31:47;;;;;;;;;;;;;;;;;;5097386;28;19923;-80
2021/09/16 00:34:13;;;;;;;;;;;;;;;;;;5097610;28;19922;-80
2021/09/16 00:36:38;;;;;;;;;;;;;;;;;;5097636;28;19951;-80
2021/09/16 00:39:04;;;;;;;;;;;;;;;;;;5097307;28;20010;-80
2021/09/16 00:41:30;;;;;;;;;;;;;;;;;;5095964;28;20389;-80
2021/09/16 00:43:55;;;;;;;;;;;;;;;;;;5097118;28;19959;-80
2021/09/16 00:46:21;;;;;;;;;;;;;;;;;;5097402;28;19916;-80
2021/09/16 00:48:46;;;;;;;;;;;;;;;;;;5097186;28;19938;-81
2021/09/16 00:51:12;;;;;;;;;;;;;;;;;;5097138;28;20030;-79
2021/09/16 00:53:38;;;;;;;;;;;;;;;;;;5096753;28;19954;-80
2021/09/16 00:56:04;;;;;;;;;;;;;;;;;;5097029;28;19970;-80
2021/09/16 00:58:33;;;;;;;;;;;;;;;;;;5097494;28;19912;-80
2021/09/16 01:00:58;;;;;;;;;;;;;;;;;;5096835;28;20067;-81
2021/09/16 01:03:24;;;;;;;;;;;;;;;;;;5096750;28;20023;-82
2021/09/16 01:05:50;;;;;;;;;;;;;;;;;;5096730;28;19923;-83
2021/09/16 01:08:16;;;;;;;;;;;;;;;;;;5095413;28;19916;-82
2021/09/16 01:10:42;;;;;;;;;;;;;;;;;;5095427;28;20299;-82
2021/09/16 01:13:09;;;;;;;;;;;;;;;;;;5096843;28;19924;-82
2021/09/16 01:15:35;;;;;;;;;;;;;;;;;;5096586;28;19955;-82
2021/09/16 01:18:00;;;;;;;;;;;;;;;;;;5096541;28;19959;-82
2021/09/16 01:20:26;;;;;;;;;;;;;;;;;;5096849;28;19920;-82
2021/09/16 01:22:51;;;;;;;;;;;;;;;;;;5096476;28;19920;-83
2021/09/16 01:25:17;;;;;;;;;;;;;;;;;;5096405;28;20383;-82
2021/09/16 01:27:43;;;;;;;;;;;;;;;;;;5096372;28;20414;-82
2021/09/16 01:30:09;;;;;;;;;;;;;;;;;;5096303;28;19939;-82
2021/09/16 01:32:34;;;;;;;;;;;;;;;;;;5096329;28;20379;-80
2021/09/16 01:35:00;;;;;;;;;;;;;;;;;;5096219;28;19922;-83
2021/09/16 01:37:25;;;;;;;;;;;;;;;;;;5096204;28;19946;-83
2021/09/16 01:39:51;;;;;;;;;;;;;;;;;;5096367;28;20299;-82
2021/09/16 01:42:16;;;;;;;;;;;;;;;;;;5095919;28;20391;-83
2021/09/16 01:44:44;;;;;;;;;;;;;;;;;;5095992;28;19927;-81
2021/09/16 01:47:10;;;;;;;;;;;;;;;;;;5095973;28;19923;-82
2021/09/16 01:49:35;;;;;;;;;;;;;;;;;;5096435;28;19916;-81
2021/09/16 01:52:01;;;;;;;;;;;;;;;;;;5096165;28;19916;-82
2021/09/16 01:54:26;;;;;;;;;;;;;;;;;;5095739;28;19924;-81
2021/09/16 01:56:51;;;;;;;;;;;;;;;;;;5095781;28;20376;-82
2021/09/16 01:59:17;;;;;;;;;;;;;;;;;;5095726;28;19919;-82
2021/09/16 02:01:42;;;;;;;;;;;;;;;;;;5095667;28;20003;-81
2021/09/16 02:04:08;;;;;;;;;;;;;;;;;;5095603;28;19916;-81
2021/09/16 02:06:33;;;;;;;;;;;;;;;;;;5095661;28;19961;-81
2021/09/16 02:08:59;;;;;;;;;;;;;;;;;;5095828;28;19916;-81
2021/09/16 02:11:24;;;;;;;;;;;;;;;;;;5095550;28;19916;-81
2021/09/16 02:13:49;;;;;;;;;;;;;;;;;;5095436;28;20256;-81
2021/09/16 02:16:15;;;;;;;;;;;;;;;;;;5095691;28;19969;-80
2021/09/16 02:18:40;;;;;;;;;;;;;;;;;;5095287;28;19916;-80
2021/09/16 02:21:06;;;;;;;;;;;;;;;;;;5095299;28;19930;-82
2021/09/16 02:23:31;;;;;;;;;;;;;;;;;;5095404;28;20375;-81
2021/09/16 02:25:57;;;;;;;;;;;;;;;;;;5095318;28;20367;-81
2021/09/16 02:28:22;;;;;;;;;;;;;;;;;;5095126;28;20398;-80
2021/09/16 02:30:48;;;;;;;;;;;;;;;;;;5095252;28;19956;-80
2021/09/16 02:33:13;;;;;;;;;;;;;;;;;;5093801;28;19963;-81
2021/09/16 02:35:38;;;;;;;;;;;;;;;;;;5095036;28;19993;-80
2021/09/16 02:38:04;;;;;;;;;;;;;;;;;;5094975;28;19920;-81
2021/09/16 02:40:29;;;;;;;;;;;;;;;;;;5095193;28;19923;-81
2021/09/16 02:42:55;;;;;;;;;;;;;;;;;;5094828;28;20379;-80
2021/09/16 02:45:21;;;;;;;;;;;;;;;;;;5094813;28;19923;-80
2021/09/16 02:47:46;;;;;;;;;;;;;;;;;;5094745;28;19958;-80
2021/09/16 02:50:12;;;;;;;;;;;;;;;;;;5094798;28;20383;-81
2021/09/16 02:52:37;;;;;;;;;;;;;;;;;;5094045;28;19962;-81
2021/09/16 02:55:03;;;;;;;;;;;;;;;;;;5093373;28;20007;-81
2021/09/16 02:57:28;;;;;;;;;;;;;;;;;;5094613;28;19959;-80
2021/09/16 02:59:54;;;;;;;;;;;;;;;;;;5094856;28;19916;-81
2021/09/16 03:02:19;;;;;;;;;;;;;;;;;;5094613;28;19923;-80
2021/09/16 03:04:45;;;;;;;;;;;;;;;;;;5094510;28;19931;-81
2021/09/16 03:07:10;;;;;;;;;;;;;;;;;;5095191;28;19916;-81
2021/09/16 03:09:35;;;;;;;;;;;;;;;;;;5094613;28;19923;-81
2021/09/16 03:12:01;;;;;;;;;;;;;;;;;;5095996;28;19916;-81
2021/09/16 03:14:26;;;;;;;;;;;;;;;;;;5097689;28;19942;-81
2021/09/16 03:16:52;;;;;;;;;;;;;;;;;;5100226;28;19920;-80
2021/09/16 03:19:17;;;;;;;;;;;;;;;;;;5095165;28;20283;-81
2021/09/16 03:21:43;;;;;;;;;;;;;;;;;;5094945;28;19971;-81
2021/09/16 03:24:08;;;;;;;;;;;;;;;;;;5092952;28;19965;-81
2021/09/16 03:26:34;;;;;;;;;;;;;;;;;;5094448;28;19919;-81
2021/09/16 03:28:59;;;;;;;;;;;;;;;;;;5094358;28;20288;-80
2021/09/16 03:31:24;;;;;;;;;;;;;;;;;;5094404;28;19924;-81
2021/09/16 03:33:50;;;;;;;;;;;;;;;;;;5095145;28;19925;-80
2021/09/16 03:36:15;;;;;;;;;;;;;;;;;;5093034;28;19919;-81
2021/09/16 03:38:41;;;;;;;;;;;;;;;;;;5094631;28;19916;-81
2021/09/16 03:41:06;;;;;;;;;;;;;;;;;;5096420;28;19956;-81
2021/09/16 03:43:32;;;;;;;;;;;;;;;;;;5095182;28;19920;-80
2021/09/16 03:45:57;;;;;;;;;;;;;;;;;;5097253;28;19916;-80
2021/09/16 03:48:22;;;;;;;;;;;;;;;;;;5097001;28;20007;-80
2021/09/16 03:50:48;;;;;;;;;;;;;;;;;;5096134;28;19920;-81
2021/09/16 03:53:14;;;;;;;;;;;;;;;;;;5092487;28;19936;-80
2021/09/16 03:55:39;;;;;;;;;;;;;;;;;;5094152;28;19923;-81
2021/09/16 03:58:05;;;;;;;;;;;;;;;;;;5093887;28;19917;-81
2021/09/16 04:00:30;;;;;;;;;;;;;;;;;;5094111;28;19916;-80
2021/09/16 04:02:55;;;;;;;;;;;;;;;;;;5093776;28;19923;-80
2021/09/16 04:05:21;;;;;;;;;;;;;;;;;;5094751;28;20014;-80
2021/09/16 04:07:46;;;;;;;;;;;;;;;;;;5097856;28;20035;-79
2021/09/16 04:10:12;;;;;;;;;;;;;;;;;;5097887;28;19947;-81
2021/09/16 04:12:37;;;;;;;;;;;;;;;;;;5097870;28;19912;-80
2021/09/16 04:15:03;;;;;;;;;;;;;;;;;;5096464;28;19920;-80
2021/09/16 04:17:29;;;;;;;;;;;;;;;;;;5097836;28;19923;-80
2021/09/16 04:19:54;;;;;;;;;;;;;;;;;;5097720;28;20330;-80
2021/09/16 04:22:20;;;;;;;;;;;;;;;;;;5097698;28;19916;-79
2021/09/16 04:24:45;;;;;;;;;;;;;;;;;;5097536;28;19916;-79
2021/09/16 04:27:13;;;;;;;;;;;;;;;;;;5097760;28;19916;-78
2021/09/16 04:29:38;;;;;;;;;;;;;;;;;;5097598;28;20007;-79
2021/09/16 04:32:04;;;;;;;;;;;;;;;;;;5097477;28;20402;-79
2021/09/16 04:34:30;;;;;;;;;;;;;;;;;;5097661;28;19917;-79
2021/09/16 04:36:55;;;;;;;;;;;;;;;;;;5097324;28;20049;-78
2021/09/16 04:39:20;;;;;;;;;;;;;;;;;;5095951;28;20390;-79
2021/09/16 04:41:46;;;;;;;;;;;;;;;;;;5097292;28;20269;-79
2021/09/16 04:44:11;;;;;;;;;;;;;;;;;;5097161;28;19989;-79
2021/09/16 04:46:37;;;;;;;;;;;;;;;;;;5097267;28;19924;-81
2021/09/16 04:49:02;;;;;;;;;;;;;;;;;;5097198;28;20010;-80
2021/09/16 04:51:28;;;;;;;;;;;;;;;;;;5097065;28;19951;-78
2021/09/16 04:53:53;;;;;;;;;;;;;;;;;;5097019;28;19920;-78
2021/09/16 04:56:19;;;;;;;;;;;;;;;;;;5095758;28;19920;-79
2021/09/16 04:58:44;;;;;;;;;;;;;;;;;;5096974;28;20007;-79
2021/09/16 05:01:09;;;;;;;;;;;;;;;;;;5096969;28;20287;-79
2021/09/16 05:03:35;;;;;;;;;;;;;;;;;;5096821;28;19969;-79
2021/09/16 05:06:00;;;;;;;;;;;;;;;;;;5095580;28;20394;-80
2021/09/16 05:08:26;;;;;;;;;;;;;;;;;;5095470;28;19912;-80
2021/09/16 05:10:51;;;;;;;;;;;;;;;;;;5096901;28;20036;-80
2021/09/16 05:13:17;;;;;;;;;;;;;;;;;;5096979;28;19920;-80
2021/09/16 05:15:42;;;;;;;;;;;;;;;;;;5096109;28;19939;-80
2021/09/16 05:18:07;;;;;;;;;;;;;;;;;;5097010;28;20303;-80
2021/09/16 05:20:33;;;;;;;;;;;;;;;;;;5096493;28;20010;-79
2021/09/16 05:22:59;;;;;;;;;;;;;;;;;;5096673;28;19916;-80
2021/09/16 05:25:24;;;;;;;;;;;;;;;;;;5095210;28;20383;-80
2021/09/16 05:27:50;;;;;;;;;;;;;;;;;;5096326;28;19969;-80
2021/09/16 05:30:15;;;;;;;;;;;;;;;;;;5096296;28;19922;-80
2021/09/16 05:32:41;;;;;;;;;;;;;;;;;;5096310;28;19979;-81
2021/09/16 05:35:07;;;;;;;;;;;;;;;;;;5096470;28;19955;-80
2021/09/16 05:37:32;;;;;;;;;;;;;;;;;;5096138;28;19927;-81
2021/09/16 05:39:57;;;;;;;;;;;;;;;;;;5096171;28;20406;-79
2021/09/16 05:42:23;;;;;;;;;;;;;;;;;;5096084;28;19939;-80
2021/09/16 05:44:48;;;;;;;;;;;;;;;;;;5096022;28;19916;-81
2021/09/16 05:47:14;;;;;;;;;;;;;;;;;;5094688;28;19916;-81
2021/09/16 05:49:39;;;;;;;;;;;;;;;;;;5095901;28;19917;-82
2021/09/16 05:52:05;;;;;;;;;;;;;;;;;;5094940;28;19916;-80
2021/09/16 05:54:30;;;;;;;;;;;;;;;;;;5095803;28;19920;-80
2021/09/16 05:56:56;;;;;;;;;;;;;;;;;;5094246;28;20004;-81
2021/09/16 05:59:21;;;;;;;;;;;;;;;;;;5095918;28;19989;-81
2021/09/16 06:01:47;;;;;;;;;;;;;;;;;;5095675;28;20364;-81
2021/09/16 06:04:12;;;;;;;;;;;;;;;;;;5095525;28;19923;-81
2021/09/16 06:06:38;;;;;;;;;;;;;;;;;;5095678;28;19923;-80
2021/09/16 06:09:03;;;;;;;;;;;;;;;;;;5094248;28;20403;-81
2021/09/16 06:11:29;;;;;;;;;;;;;;;;;;5094212;28;19982;-80
2021/09/16 06:13:54;;;;;;;;;;;;;;;;;;5095400;28;19916;-81
2021/09/16 06:16:23;;;;;;;;;;;;;;;;;;5094146;28;19922;-80
2021/09/16 06:18:49;;;;;;;;;;;;;;;;;;5094076;28;19969;-81
2021/09/16 06:21:15;;;;;;;;;;;;;;;;;;5095322;28;20329;-79
2021/09/16 06:23:40;;;;;;;;;;;;;;;;;;5095216;28;20010;-81
2021/09/16 06:26:05;;;;;;;;;;;;;;;;;;5095228;28;19916;-80
2021/09/16 06:28:31;;;;;;;;;;;;;;;;;;5094433;28;19916;-80
2021/09/16 06:30:56;;;;;;;;;;;;;;;;;;5095397;28;20376;-80
2021/09/16 06:33:22;;;;;;;;;;;;;;;;;;5095039;28;19955;-80
2021/09/16 06:35:47;;;;;;;;;;;;;;;;;;5094113;28;19916;-79
2021/09/16 06:38:13;;;;;;;;;;;;;;;;;;5094910;28;19923;-79
2021/09/16 06:40:38;;;;;;;;;;;;;;;;;;5094926;28;19923;-81
2021/09/16 06:43:04;;;;;;;;;;;;;;;;;;5094885;28;20409;-80
2021/09/16 06:45:29;;;;;;;;;;;;;;;;;;5094830;28;19916;-81
2021/09/16 06:47:55;;;;;;;;;;;;;;;;;;5094821;28;20357;-80
2021/09/16 06:50:20;;;;;;;;;;;;;;;;;;5094857;28;19916;-80
2021/09/16 06:52:46;;;;;;;;;;;;;;;;;;5094519;28;19916;-81
2021/09/16 06:55:11;;;;;;;;;;;;;;;;;;5093797;28;19969;-79
2021/09/16 06:57:36;;;;;;;;;;;;;;;;;;5094740;28;19985;-81
2021/09/16 07:00:03;;;;;;;;;;;;;;;;;;5094718;28;20399;-80
2021/09/16 07:02:29;;;;;;;;;;;;;;;;;;5094595;28;19916;-81
2021/09/16 07:04:55;;;;;;;;;;;;;;;;;;5094711;28;20286;-80
2021/09/16 07:07:20;;;;;;;;;;;;;;;;;;5094572;28;19916;-81
2021/09/16 07:09:46;;;;;;;;;;;;;;;;;;5093275;28;19912;-80
2021/09/16 07:12:11;;;;;;;;;;;;;;;;;;5094712;28;19964;-80
2021/09/16 07:14:37;;;;;;;;;;;;;;;;;;5097085;28;19912;-80
2021/09/16 07:17:02;;;;;;;;;;;;;;;;;;5102833;28;19949;-80
2021/09/16 07:19:28;;;;;;;;;;;;;;;;;;5103991;28;19990;-81
2021/09/16 07:21:53;;;;;;;;;;;;;;;;;;5096087;28;20419;-80
2021/09/16 07:24:19;;;;;;;;;;;;;;;;;;5093126;28;19920;-80
2021/09/16 07:26:50;;;;;;;;;;;;;;;;;;5094446;28;19923;-79
2021/09/16 07:29:16;;;;;;;;;;;;;;;;;;5094437;28;20015;-79
2021/09/16 07:31:41;;;;;;;;;;;;;;;;;;5094388;28;20075;-79
2021/09/16 07:34:07;;;;;;;;;;;;;;;;;;5094043;28;19916;-79
2021/09/16 07:36:32;;;;;;;;;;;;;;;;;;5094080;28;19975;-80
2021/09/16 07:38:58;;;;;;;;;;;;;;;;;;5094111;28;19916;-80
2021/09/16 07:41:23;;;;;;;;;;;;;;;;;;5094230;28;19916;-79
2021/09/16 07:43:49;;;;;;;;;;;;;;;;;;5092672;28;19991;-80
2021/09/16 07:46:14;;;;;;;;;;;;;;;;;;5094487;28;19916;-80
2021/09/16 07:48:39;;;;;;;;;;;;;;;;;;5092744;28;19959;-80
2021/09/16 07:51:05;;;;;;;;;;;;;;;;;;5093972;28;20007;-80
2021/09/16 07:53:30;;;;;;;;;;;;;;;;;;5093863;28;20333;-79
2021/09/16 07:55:57;;;;;;;;;;;;;;;;;;5094196;28;19939;-80
2021/09/16 07:58:22;;;;;;;;;;;;;;;;;;5091498;28;19951;-80
2021/09/16 08:00:48;;;;;;;;;;;;;;;;;;5093203;28;20410;-79
2021/09/16 08:03:13;;;;;;;;;;;;;;;;;;5093635;28;19920;-79
2021/09/16 08:05:40;;;;;;;;;;;;;;;;;;5093780;28;20383;-80
2021/09/16 08:08:05;;;;;;;;;;;;;;;;;;5093676;28;19916;-80
2021/09/16 08:10:31;;;;;;;;;;;;;;;;;;5093753;28;19923;-78
2021/09/16 08:12:56;;;;;;;;;;;;;;;;;;5093575;28;19969;-80
2021/09/16 08:15:21;;;;;;;;;;;;;;;;;;5093594;28;19955;-79
2021/09/16 08:17:47;;;;;;;;;;;;;;;;;;5093879;28;19957;-81
2021/09/16 08:20:13;;;;;;;;;;;;;;;;;;5093529;28;20291;-80
2021/09/16 08:22:39;;;;;;;;;;;;;;;;;;5093503;28;19916;-80
2021/09/16 08:25:06;;;;;;;;;;;;;;;;;;5093549;28;20363;-81
2021/09/16 08:27:32;;;;;;;;;;;;;;;;;;5093658;28;19942;-80
2021/09/16 08:29:58;;;;;;;;;;;;;;;;;;5093495;28;19916;-79
2021/09/16 08:32:24;;;;;;;;;;;;;;;;;;5093539;28;20010;-80
2021/09/16 08:34:49;;;;;;;;;;;;;;;;;;5093484;28;20358;-81
2021/09/16 08:37:14;;;;;;;;;;;;;;;;;;5093324;28;20364;-79
2021/09/16 08:39:40;;;;;;;;;;;;;;;;;;5093395;28;19917;-81
2021/09/16 08:42:06;;;;;;;;;;;;;;;;;;5092227;28;19920;-85
2021/09/16 08:44:31;;;;;;;;;;;;;;;;;;5093238;28;19923;-83
2021/09/16 08:46:57;;;;;;;;;;;;;;;;;;5093339;28;19916;-83
2021/09/16 08:49:23;;;;;;;;;;;;;;;;;;5093283;28;19923;-81
2021/09/16 08:51:48;;;;;;;;;;;;;;;;;;5096313;28;20413;-81
2021/09/16 08:54:14;;;;;;;;;;;;;;;;;;5096733;28;20330;-81
2021/09/16 08:56:41;;;;;;;;;;;;;;;;;;5096883;28;19923;-81
2021/09/16 08:59:07;;;;;;;;;;;;;;;;;;5095585;28;20071;-82
2021/09/16 09:01:33;;;;;;;;;;;;;;;;;;5095521;28;19997;-82
2021/09/16 09:03:58;;;;;;;;;;;;;;;;;;5096713;28;19916;-81
2021/09/16 09:06:28;;;;;;;;;;;;;;;;;;5097074;28;19916;-80
2021/09/16 09:09:14;;;;;;;;;;;;;;;;;;5096705;28;19961;-81
2021/09/16 09:11:48;;;;;;;;;;;;;;;;;;5096173;28;19916;-81
2021/09/16 09:14:21;;;;;;;;;;;;;;;;;;5096875;28;19917;-81
2021/09/16 09:16:47;;;;;;;;;;;;;;;;;;5095250;28;19923;-79
2021/09/16 09:19:20;;;;;;;;;;;;;;;;;;5096401;28;19920;-79
2021/09/16 09:21:45;;;;;;;;;;;;;;;;;;5096703;28;19920;-79
2021/09/16 09:24:11;;;;;;;;;;;;;;;;;;5096560;28;19920;-78
2021/09/16 09:26:37;;;;;;;;;;;;;;;;;;5096373;28;20005;-79
2021/09/16 09:29:09;;;;;;;;;;;;;;;;;;5096281;28;19949;-79
2021/09/16 09:31:39;;;;;;;;;;;;;;;;;;5097017;28;19916;-79
2021/09/16 09:34:24;;;;;;;;;;;;;;;;;;5096349;28;19912;-79
2021/09/16 09:36:49;;;;;;;;;;;;;;;;;;5096120;28;19916;-79
2021/09/16 09:39:15;;;;;;;;;;;;;;;;;;5095949;28;19919;-79
2021/09/16 09:41:40;;;;;;;;;;;;;;;;;;5096257;28;20618;-80
2021/09/16 09:44:09;;;;;;;;;;;;;;;;;;5096015;28;20367;-79
2021/09/16 09:47:01;;;;;;;;;;;;;;;;;;5096156;28;19916;-79
2021/09/16 09:49:26;;;;;;;;;;;;;;;;;;5093734;28;19924;-79
2021/09/16 09:51:53;;;;;;;;;;;;;;;;;;5095834;28;20494;-79
2021/09/16 09:54:31;;;;;;;;;;;;;;;;;;5095629;28;19926;-78
2021/09/16 09:56:58;;;;;;;;;;;;;;;;;;5095303;28;19916;-79
2021/09/16 09:59:24;;;;;;;;;;;;;;;;;;5095194;28;19916;-79
2021/09/16 10:01:49;;;;;;;;;;;;;;;;;;5095638;28;19916;-78
2021/09/16 10:04:25;;;;;;;;;;;;;;;;;;5095808;28;19939;-80
2021/09/16 10:06:51;;;;;;;;;;;;;;;;;;5095440;28;19970;-80
2021/09/16 10:09:19;;;;;;;;;;;;;;;;;;5095409;28;19916;-79
2021/09/16 10:11:45;;;;;;;;;;;;;;;;;;5095419;28;19916;-81
2021/09/16 10:14:11;;;;;;;;;;;;;;;;;;5095555;28;20275;-80
2021/09/16 10:16:37;;;;;;;;;;;;;;;;;;5095345;28;19923;-79
2021/09/16 10:19:02;;;;;;;;;;;;;;;;;;5095286;28;20455;-79
2021/09/16 10:21:28;;;;;;;;;;;;;;;;;;5095236;28;19923;-79
2021/09/16 10:23:54;;;;;;;;;;;;;;;;;;5095201;28;19916;-80
2021/09/16 10:26:40;;;;;;;;;;;;;;;;;;5095027;28;19916;-79
2021/09/16 10:29:06;;;;;;;;;;;;;;;;;;5095401;28;19919;-80
2021/09/16 10:31:32;;;;;;;;;;;;;;;;;;5093833;28;19916;-79
2021/09/16 10:33:57;;;;;;;;;;;;;;;;;;5095095;28;20260;-79
2021/09/16 10:36:23;;;;;;;;;;;;;;;;;;5094986;28;20010;-79
2021/09/16 10:38:53;;;;;;;;;;;;;;;;;;5094940;28;19916;-79
2021/09/16 10:41:34;;;;;;;;;;;;;;;;;;5094831;28;19955;-79
2021/09/16 10:43:59;;;;;;;;;;;;;;;;;;5094812;28;19963;-79
2021/09/16 10:46:38;;;;;;;;;;;;;;;;;;5094634;28;19947;-80
2021/09/16 10:49:27;;;;;;;;;;;;;;;;;;5094846;28;20302;-80
2021/09/16 10:52:15;;;;;;;;;;;;;;;;;;5094938;28;19920;-78
2021/09/16 10:54:41;;;;;;;;;;;;;;;;;;5094434;28;19920;-78
2021/09/16 10:57:07;;;;;;;;;;;;;;;;;;5094563;28;20299;-80
2021/09/16 10:59:47;;;;;;;;;;;;;;;;;;5094513;28;19923;-79
2021/09/16 11:02:15;;;;;;;;;;;;;;;;;;5094592;28;19993;-79
2021/09/16 11:04:56;;;;;;;;;;;;;;;;;;5094365;28;19920;-79
2021/09/16 11:07:30;;;;;;;;;;;;;;;;;;5094306;28;20368;-80
2021/09/16 11:09:56;;;;;;;;;;;;;;;;;;5094382;28;19919;-80
2021/09/16 11:12:29;;;;;;;;;;;;;;;;;;5094587;28;19917;-80
2021/09/16 11:14:56;;;;;;;;;;;;;;;;;;5093801;28;19916;-79
2021/09/16 11:17:25;;;;;;;;;;;;;;;;;;5094371;28;19916;-80
2021/09/16 11:19:51;;;;;;;;;;;;;;;;;;5095035;28;20287;-80
2021/09/16 11:22:22;;;;;;;;;;;;;;;;;;5096284;28;19923;-80
2021/09/16 11:24:48;;;;;;;;;;;;;;;;;;5098313;28;19912;-80
2021/09/16 11:27:21;;;;;;;;;;;;;;;;;;5096099;28;20013;-79
2021/09/16 11:29:47;;;;;;;;;;;;;;;;;;5094761;28;20334;-80
2021/09/16 11:32:14;;;;;;;;;;;;;;;;;;5094296;28;19916;-81
2021/09/16 11:34:58;;;;;;;;;;;;;;;;;;5094208;28;20384;-80
2021/09/16 11:37:30;;;;;;;;;;;;;;;;;;5093941;28;19923;-80
2021/09/16 11:40:07;;;;;;;;;;;;;;;;;;5094049;28;19916;-80
2021/09/16 11:42:34;;;;;;;;;;;;;;;;;;5093889;28;20002;-79
2021/09/16 11:44:59;;;;;;;;;;;;;;;;;;5094118;28;19924;-78
2021/09/16 11:47:25;;;;;;;;;;;;;;;;;;5093665;28;19920;-79
2021/09/16 11:49:51;;;;;;;;;;;;;;;;;;5093973;28;19923;-79
2021/09/16 11:52:20;;;;;;;;;;;;;;;;;;5093837;28;19916;-80
2021/09/16 11:55:06;;;;;;;;;;;;;;;;;;5092488;28;20395;-80
2021/09/16 11:57:51;;;;;;;;;;;;;;;;;;5093851;28;19923;-80
2021/09/16 12:00:22;;;;;;;;;;;;;;;;;;5093791;28;19923;-78
2021/09/16 12:02:48;;;;;;;;;;;;;;;;;;5093740;28;19916;-79
2021/09/16 12:05:29;;;;;;;;;;;;;;;;;;5093681;28;19917;-80
2021/09/16 12:07:55;;;;;;;;;;;;;;;;;;5093672;28;19961;-78
2021/09/16 12:10:20;;;;;;;;;;;;;;;;;;5093739;28;20010;-78
2021/09/16 12:12:45;;;;;;;;;;;;;;;;;;5093600;28;19920;-78
2021/09/16 12:15:11;;;;;;;;;;;;;;;;;;5093594;28;20363;-79
2021/09/16 12:17:39;;;;;;;;;;;;;;;;;;5094489;28;20384;-83
2021/09/16 12:20:05;;;;;;;;;;;;;;;;;;5094693;28;19917;-81
2021/09/16 12:22:36;;;;;;;;;;;;;;;;;;5097042;28;19916;-83
2021/09/16 12:25:01;;;;;;;;;;;;;;;;;;5099858;28;19917;-80
2021/09/16 12:27:28;;;;;;;;;;;;;;;;;;5076460;28;19928;-81
2021/09/16 12:29:55;;;;;;;;;;;;;;;;;;5077013;28;19917;-79
2021/09/16 12:32:29;;;;;;;;;;;;;;;;;;5076577;28;19917;-78
2021/09/16 12:34:54;;;;;;;;;;;;;;;;;;5076828;28;19920;-78
2021/09/16 12:37:20;;;;;;;;;;;;;;;;;;5076529;28;19916;-80
2021/09/16 12:39:45;;;;;;;;;;;;;;;;;;5076626;28;19917;-80
2021/09/16 12:42:14;;;;;;;;;;;;;;;;;;5075201;28;19997;-80
2021/09/16 12:44:40;;;;;;;;;;;;;;;;;;5074974;28;20395;-80
2021/09/16 12:47:07;;;;;;;;;;;;;;;;;;5073671;28;19924;-80
2021/09/16 12:49:34;;;;;;;;;;;;;;;;;;5075262;28;20413;-79
2021/09/16 12:52:00;;;;;;;;;;;;;;;;;;5075124;28;20383;-80
2021/09/16 12:54:25;;;;;;;;;;;;;;;;;;5075226;28;19925;-80
2021/09/16 12:56:51;;;;;;;;;;;;;;;;;;5073714;28;19920;-80
2021/09/16 12:59:21;;;;;;;;;;;;;;;;;;5076326;28;19916;-79
2021/09/16 13:01:47;;;;;;;;;;;;;;;;;;5076489;28;19923;-79
2021/09/16 13:04:13;;;;;;;;;;;;;;;;;;5076445;28;20022;-79
2021/09/16 13:06:38;;;;;;;;;;;;;;;;;;5075819;28;19916;-80
2021/09/16 13:09:04;;;;;;;;;;;;;;;;;;5076457;28;20295;-81
2021/09/16 13:11:29;;;;;;;;;;;;;;;;;;5076157;28;20280;-79
2021/09/16 13:14:05;;;;;;;;;;;;;;;;;;5075942;28;20326;-79
2021/09/16 13:16:31;;;;;;;;;;;;;;;;;;5077088;28;19923;-80
2021/09/16 13:18:57;;;;;;;;;;;;;;;;;;5086148;28;19923;-79
2021/09/16 13:21:22;;;;;;;;;;;;;;;;;;5082375;28;19920;-79
2021/09/16 13:23:49;;;;;;;;;;;;;;;;;;5096650;28;19920;-80
2021/09/16 13:26:14;;;;;;;;;;;;;;;;;;5092448;28;20283;-80
2021/09/16 13:28:40;;;;;;;;;;;;;;;;;;5091818;28;19912;-80
2021/09/16 13:31:13;;;;;;;;;;;;;;;;;;5091301;28;19923;-84
2021/09/16 13:33:38;;;;;;;;;;;;;;;;;;5094296;28;19923;-81
2021/09/16 13:36:04;;;;;;;;;;;;;;;;;;5087525;28;19920;-82
2021/09/16 13:38:32;;;;;;;;;;;;;;;;;;5083752;28;19955;-85
2021/09/16 13:40:58;;;;;;;;;;;;;;;;;;5094348;28;19920;-86
2021/09/16 13:43:23;;;;;;;;;;;;;;;;;;5094754;28;20390;-81
2021/09/16 13:45:49;;;;;;;;;;;;;;;;;;5081971;28;19920;-81
2021/09/16 13:48:16;;;;;;;;;;;;;;;;;;5079734;28;19923;-80
2021/09/16 13:50:41;;;;;;;;;;;;;;;;;;5074983;28;20020;-80
2021/09/16 13:53:07;;;;;;;;;;;;;;;;;;5075363;28;20447;-80
2021/09/16 13:55:33;;;;;;;;;;;;;;;;;;5075325;28;20296;-80
2021/09/16 13:57:58;;;;;;;;;;;;;;;;;;5074108;28;19917;-81
2021/09/16 14:00:24;;;;;;;;;;;;;;;;;;5075160;28;20062;-80
2021/09/16 14:02:50;;;;;;;;;;;;;;;;;;5075384;28;19916;-81
2021/09/16 14:05:15;;;;;;;;;;;;;;;;;;5075258;28;19916;-82
2021/09/16 14:07:41;;;;;;;;;;;;;;;;;;5073341;28;19923;-81
2021/09/16 14:10:07;;;;;;;;;;;;;;;;;;5074988;28;19916;-80
2021/09/16 14:12:32;;;;;;;;;;;;;;;;;;5075124;28;19970;-81
2021/09/16 14:14:58;;;;;;;;;;;;;;;;;;5074789;28;19916;-80
2021/09/16 14:17:23;;;;;;;;;;;;;;;;;;5074700;28;19916;-81
2021/09/16 14:19:48;;;;;;;;;;;;;;;;;;5074913;28;19918;-80
2021/09/16 14:22:14;;;;;;;;;;;;;;;;;;5075053;28;19922;-81
2021/09/16 14:24:39;;;;;;;;;;;;;;;;;;5075036;28;19955;-80
2021/09/16 14:27:05;;;;;;;;;;;;;;;;;;5074826;28;19961;-79
2021/09/16 14:29:30;;;;;;;;;;;;;;;;;;5074845;28;19924;-80
2021/09/16 14:31:56;;;;;;;;;;;;;;;;;;5074906;28;19924;-80
2021/09/16 14:34:21;;;;;;;;;;;;;;;;;;5074477;28;20022;-83
2021/09/16 14:36:47;;;;;;;;;;;;;;;;;;5073572;28;19965;-81
2021/09/16 14:39:12;;;;;;;;;;;;;;;;;;5072766;28;20007;-81
2021/09/16 14:41:38;;;;;;;;;;;;;;;;;;5074655;28;20342;-85
2021/09/16 14:44:04;;;;;;;;;;;;;;;;;;5073410;28;19917;-83
2021/09/16 14:46:30;;;;;;;;;;;;;;;;;;5074586;28;19917;-82
2021/09/16 14:48:55;;;;;;;;;;;;;;;;;;5073733;28;20291;-82
2021/09/16 14:51:21;;;;;;;;;;;;;;;;;;5074377;28;19963;-81
2021/09/16 14:53:46;;;;;;;;;;;;;;;;;;5074153;28;19920;-81
2021/09/16 14:56:12;;;;;;;;;;;;;;;;;;5072971;28;19916;-83
2021/09/16 14:58:38;;;;;;;;;;;;;;;;;;5073040;28;19923;-84
2021/09/16 15:01:04;;;;;;;;;;;;;;;;;;5073085;28;19916;-83
2021/09/16 15:03:29;;;;;;;;;;;;;;;;;;5073084;28;19916;-81
2021/09/16 15:05:54;;;;;;;;;;;;;;;;;;5074299;28;19962;-79
2021/09/16 15:08:20;;;;;;;;;;;;;;;;;;5074259;28;19958;-79
2021/09/16 15:10:45;;;;;;;;;;;;;;;;;;5074731;28;20372;-81
2021/09/16 15:13:11;;;;;;;;;;;;;;;;;;5077493;28;19916;-81
2021/09/16 15:15:36;;;;;;;;;;;;;;;;;;5079054;28;19916;-82
2021/09/16 15:18:02;;;;;;;;;;;;;;;;;;5087284;28;20391;-81
2021/09/16 15:20:28;;;;;;;;;;;;;;;;;;5088587;28;19930;-82
2021/09/16 15:22:53;;;;;;;;;;;;;;;;;;5080659;28;19966;-81
2021/09/16 15:25:19;;;;;;;;;;;;;;;;;;5080326;28;19920;-82
2021/09/16 15:27:45;;;;;;;;;;;;;;;;;;5072624;28;19961;-81
2021/09/16 15:30:11;;;;;;;;;;;;;;;;;;5074023;28;19957;-81
2021/09/16 15:32:37;;;;;;;;;;;;;;;;;;5071946;28;19923;-86
2021/09/16 15:35:03;;;;;;;;;;;;;;;;;;5081054;28;19924;-81
2021/09/16 15:37:28;;;;;;;;;;;;;;;;;;5076147;28;19920;-82
2021/09/16 15:39:53;;;;;;;;;;;;;;;;;;5073854;28;20007;-86
2021/09/16 15:42:19;;;;;;;;;;;;;;;;;;5084753;28;19916;-80
2021/09/16 15:44:44;;;;;;;;;;;;;;;;;;5073900;28;19916;-82
2021/09/16 15:47:10;;;;;;;;;;;;;;;;;;5073812;28;19916;-82
2021/09/16 15:49:39;;;;;;;;;;;;;;;;;;5074213;28;19956;-83
2021/09/16 15:52:05;;;;;;;;;;;;;;;;;;5073911;28;19917;-82
2021/09/16 15:54:31;;;;;;;;;;;;;;;;;;5073162;28;19920;-83
2021/09/16 15:56:56;;;;;;;;;;;;;;;;;;5073680;28;19916;-82
2021/09/16 15:59:23;;;;;;;;;;;;;;;;;;5073798;28;19946;-81
2021/09/16 16:01:49;;;;;;;;;;;;;;;;;;5077675;28;19917;-81
2021/09/16 16:04:14;;;;;;;;;;;;;;;;;;5077665;28;19916;-82
2021/09/16 16:06:40;;;;;;;;;;;;;;;;;;5077794;28;20376;-81
2021/09/16 16:09:05;;;;;;;;;;;;;;;;;;5076196;28;19924;-82
2021/09/16 16:11:31;;;;;;;;;;;;;;;;;;5077479;28;20038;-82
2021/09/16 16:13:56;;;;;;;;;;;;;;;;;;5077436;28;19962;-83
2021/09/16 16:16:22;;;;;;;;;;;;;;;;;;5077248;28;19962;-82
2021/09/16 16:18:47;;;;;;;;;;;;;;;;;;5076903;28;19913;-82
2021/09/16 16:21:12;;;;;;;;;;;;;;;;;;5076031;28;19920;-81
2021/09/16 16:23:38;;;;;;;;;;;;;;;;;;5076035;28;19912;-80
2021/09/16 16:26:03;;;;;;;;;;;;;;;;;;5077230;28;19921;-83
2021/09/16 16:28:29;;;;;;;;;;;;;;;;;;5077176;28;20330;-81
2021/09/16 16:30:55;;;;;;;;;;;;;;;;;;5076279;28;20011;-83
2021/09/16 16:33:23;;;;;;;;;;;;;;;;;;5076902;28;19917;-81
2021/09/16 16:35:55;;;;;;;;;;;;;;;;;;5076731;28;20050;-80
2021/09/16 16:38:21;;;;;;;;;;;;;;;;;;5076796;28;19955;-82
2021/09/16 16:40:47;;;;;;;;;;;;;;;;;;5075822;28;19966;-82